createdAt,value
2022-08-17T00:00:05.467Z,19.52
2022-08-17T00:02:32.612Z,19.39
2022-08-17T00:05:05.706Z,19.22
2022-08-17T00:07:32.393Z,19.17
2022-08-17T00:09:59.080Z,19.24
2022-08-17T00:12:40.834Z,19.25
2022-08-17T00:15:13.636Z,19.24
2022-08-17T00:17:42.482Z,19.25
2022-08-17T00:20:12.226Z,19.31
2022-08-17T00:22:39.156Z,18.81
2022-08-17T00:25:13.015Z,18.51
2022-08-17T00:27:40.492Z,18.76
2022-08-17T00:30:11.881Z,19.01
2022-08-17T00:33:11.941Z,19.09
2022-08-17T00:35:34.420Z,19.14
2022-08-17T00:38:01.158Z,18.88
2022-08-17T00:40:39.885Z,18.93
2022-08-17T00:43:33.547Z,18.97
2022-08-17T00:46:15.883Z,19.05
2022-08-17T00:48:44.153Z,19.03
2022-08-17T00:51:26.451Z,19.01
2022-08-17T00:54:22.178Z,18.99
2022-08-17T00:57:15.099Z,19.04
2022-08-17T00:59:51.126Z,19.08
2022-08-17T01:02:42.253Z,19.02
2022-08-17T01:05:23.856Z,18.93
2022-08-17T01:07:53.814Z,18.83
2022-08-17T01:10:58.556Z,18.81
2022-08-17T01:13:19.108Z,18.85
2022-08-17T01:16:31.968Z,18.90
2022-08-17T01:19:03.318Z,18.93
2022-08-17T01:21:56.657Z,18.80
2022-08-17T01:24:24.303Z,18.58
2022-08-17T01:26:51.629Z,18.48
2022-08-17T01:29:23.007Z,18.40
2022-08-17T01:31:56.701Z,18.36
2022-08-17T01:34:25.008Z,18.35
2022-08-17T01:37:05.129Z,18.43
2022-08-17T01:39:54.139Z,18.40
2022-08-17T01:42:31.942Z,18.29
2022-08-17T01:45:06.890Z,18.39
2022-08-17T01:47:36.081Z,18.39
2022-08-17T01:50:11.398Z,18.33
2022-08-17T01:52:39.499Z,18.38
2022-08-17T01:55:08.192Z,18.44
2022-08-17T01:57:35.540Z,18.06
2022-08-17T02:00:10.277Z,17.89
2022-08-17T02:02:37.314Z,18.02
2022-08-17T02:05:07.238Z,18.21
2022-08-17T02:07:59.489Z,18.31
2022-08-17T02:10:23.917Z,18.43
2022-08-17T02:13:04.829Z,18.48
2022-08-17T02:15:32.368Z,18.41
2022-08-17T02:17:59.247Z,18.44
2022-08-17T02:20:42.045Z,18.44
2022-08-17T02:23:13.061Z,18.34
2022-08-17T02:25:44.206Z,18.16
2022-08-17T02:28:11.438Z,18.15
2022-08-17T02:31:00.194Z,18.08
2022-08-17T02:33:25.313Z,18.02
2022-08-17T02:36:12.720Z,18.07
2022-08-17T02:38:42.473Z,18.07
2022-08-17T02:41:09.785Z,18.03
2022-08-17T02:43:36.738Z,18.02
2022-08-17T02:46:03.437Z,17.93
2022-08-17T02:48:32.035Z,17.97
2022-08-17T02:51:00.756Z,18.03
2022-08-17T02:53:33.674Z,18.11
2022-08-17T02:56:04.201Z,18.20
2022-08-17T02:58:35.209Z,18.20
2022-08-17T03:01:06.262Z,18.26
2022-08-17T03:03:33.420Z,18.29
2022-08-17T03:06:01.178Z,18.18
2022-08-17T03:08:28.434Z,18.08
2022-08-17T03:10:55.676Z,18.06
2022-08-17T03:13:23.198Z,18.11
2022-08-17T03:15:50.664Z,18.05
2022-08-17T03:18:24.486Z,18.13
2022-08-17T03:20:56.405Z,18.11
2022-08-17T03:23:25.523Z,18.14
2022-08-17T03:25:53.959Z,18.14
2022-08-17T03:28:23.118Z,18.07
2022-08-17T03:30:51.461Z,17.98
2022-08-17T03:33:19.548Z,17.93
2022-08-17T03:35:47.291Z,17.99
2022-08-17T03:38:17.380Z,18.07
2022-08-17T03:40:57.442Z,18.12
2022-08-17T03:43:26.226Z,18.03
2022-08-17T03:46:28.636Z,18.06
2022-08-17T03:49:17.510Z,18.04
2022-08-17T03:52:03.175Z,17.92
2022-08-17T03:54:48.869Z,17.92
2022-08-17T03:57:16.655Z,17.97
2022-08-17T03:59:45.032Z,17.99
2022-08-17T04:02:34.089Z,17.96
2022-08-17T04:05:01.755Z,17.98
2022-08-17T04:07:31.298Z,17.92
2022-08-17T04:09:59.560Z,17.91
2022-08-17T04:12:31.268Z,17.95
2022-08-17T04:14:59.121Z,17.96
2022-08-17T04:17:29.449Z,17.91
2022-08-17T04:19:57.620Z,17.92
2022-08-17T04:22:32.790Z,17.86
2022-08-17T04:25:21.234Z,17.92
2022-08-17T04:27:48.805Z,17.97
2022-08-17T04:30:16.263Z,18.00
2022-08-17T04:33:05.011Z,18.05
2022-08-17T04:35:40.078Z,18.05
2022-08-17T04:38:10.462Z,18.01
2022-08-17T04:40:56.680Z,18.03
2022-08-17T04:43:26.605Z,18.07
2022-08-17T04:46:06.041Z,17.97
2022-08-17T04:48:37.827Z,18.03
2022-08-17T04:51:10.009Z,18.11
2022-08-17T04:53:39.122Z,18.21
2022-08-17T04:56:06.854Z,18.29
2022-08-17T04:58:33.926Z,18.34
2022-08-17T05:01:01.571Z,18.36
2022-08-17T05:03:29.243Z,18.40
2022-08-17T05:05:55.949Z,18.45
2022-08-17T05:08:22.754Z,18.51
2022-08-17T05:10:50.218Z,18.57
2022-08-17T05:13:21.604Z,18.62
2022-08-17T05:15:53.093Z,18.68
2022-08-17T05:18:19.816Z,18.76
2022-08-17T05:20:46.696Z,18.86
2022-08-17T05:23:18.916Z,18.92
2022-08-17T05:25:54.595Z,19.00
2022-08-17T05:28:26.544Z,19.10
2022-08-17T05:30:59.329Z,19.21
2022-08-17T05:33:31.757Z,19.24
2022-08-17T05:36:00.203Z,19.36
2022-08-17T05:38:29.623Z,19.45
2022-08-17T05:41:00.373Z,19.50
2022-08-17T05:43:31.970Z,19.59
2022-08-17T05:46:27.373Z,19.76
2022-08-17T05:49:03.157Z,19.96
2022-08-17T05:52:04.071Z,20.21
2022-08-17T05:55:10.238Z,20.45
2022-08-17T05:57:56.292Z,20.69
2022-08-17T06:01:04.130Z,20.97
2022-08-17T06:04:21.682Z,21.25
2022-08-17T06:07:10.993Z,21.15
2022-08-17T06:10:10.114Z,21.09
2022-08-17T06:13:08.408Z,21.17
2022-08-17T06:16:33.776Z,21.37
2022-08-17T06:19:31.671Z,21.76
2022-08-17T06:22:00.317Z,21.77
2022-08-17T06:24:35.678Z,21.72
2022-08-17T06:27:13.009Z,21.80
2022-08-17T06:30:13.217Z,22.04
2022-08-17T06:32:45.101Z,22.36
2022-08-17T06:35:18.392Z,22.77
2022-08-17T06:38:37.166Z,23.05
2022-08-17T06:41:38.115Z,23.38
2022-08-17T06:44:43.198Z,23.61
2022-08-17T06:48:06.791Z,23.94
2022-08-17T06:50:46.531Z,23.97
2022-08-17T06:53:26.722Z,24.15
2022-08-17T06:56:22.064Z,24.46
2022-08-17T06:58:49.996Z,24.67
2022-08-17T07:01:31.781Z,24.95
2022-08-17T07:04:15.438Z,25.19
2022-08-17T07:07:24.656Z,25.22
2022-08-17T07:09:56.517Z,25.50
2022-08-17T07:12:34.221Z,25.67
2022-08-17T07:15:22.865Z,25.93
2022-08-17T07:17:49.854Z,26.24
2022-08-17T07:20:22.718Z,26.34
2022-08-17T07:23:03.177Z,26.28
2022-08-17T07:25:30.728Z,26.18
2022-08-17T07:28:06.107Z,26.83
2022-08-17T07:30:49.217Z,27.24
2022-08-17T07:33:26.062Z,27.41
2022-08-17T07:35:53.632Z,27.57
2022-08-17T07:38:28.352Z,27.65
2022-08-17T07:41:01.181Z,27.71
2022-08-17T07:43:45.028Z,27.45
2022-08-17T07:46:30.344Z,27.74
2022-08-17T07:49:09.117Z,27.95
2022-08-17T07:51:57.264Z,27.80
2022-08-17T07:54:37.629Z,27.76
2022-08-17T07:57:13.225Z,27.93
2022-08-17T07:59:44.175Z,28.30
2022-08-17T08:02:17.175Z,28.30
2022-08-17T08:05:01.899Z,28.06
2022-08-17T08:07:50.638Z,28.34
2022-08-17T08:10:38.387Z,28.00
2022-08-17T08:13:14.483Z,27.88
2022-08-17T08:15:54.796Z,28.25
2022-08-17T08:18:54.075Z,28.43
2022-08-17T08:21:42.206Z,28.25
2022-08-17T08:24:40.689Z,28.47
2022-08-17T08:27:50.325Z,28.24
2022-08-17T08:30:22.084Z,28.23
2022-08-17T08:33:29.487Z,28.40
2022-08-17T08:36:58.120Z,28.92
2022-08-17T08:39:30.802Z,29.18
2022-08-17T08:42:49.850Z,29.38
2022-08-17T08:45:43.981Z,29.37
2022-08-17T08:49:12.180Z,29.09
2022-08-17T08:51:56.216Z,29.30
2022-08-17T08:54:53.757Z,29.48
2022-08-17T08:57:34.374Z,29.10
2022-08-17T09:00:20.999Z,29.63
2022-08-17T09:03:51.949Z,29.97
2022-08-17T09:06:39.072Z,30.26
2022-08-17T09:09:19.078Z,30.16
2022-08-17T09:12:06.618Z,30.30
2022-08-17T09:14:47.001Z,30.67
2022-08-17T09:17:25.500Z,30.65
2022-08-17T09:20:05.762Z,30.60
2022-08-17T09:22:52.777Z,30.32
2022-08-17T09:25:28.398Z,30.10
2022-08-17T09:28:20.460Z,30.14
2022-08-17T09:30:55.286Z,30.23
2022-08-17T09:33:27.621Z,30.32
2022-08-17T09:36:08.467Z,30.40
2022-08-17T09:38:43.587Z,30.64
2022-08-17T09:41:50.433Z,30.83
2022-08-17T09:44:46.045Z,30.99
2022-08-17T09:47:24.431Z,30.35
2022-08-17T09:50:11.524Z,30.20
2022-08-17T09:52:38.257Z,30.01
2022-08-17T09:55:06.190Z,30.03
2022-08-17T09:58:12.014Z,30.77
2022-08-17T10:00:53.518Z,30.64
2022-08-17T10:03:51.786Z,30.76
2022-08-17T10:06:52.286Z,30.77
2022-08-17T10:09:53.138Z,30.99
2022-08-17T10:12:38.735Z,30.71
2022-08-17T10:15:42.722Z,30.48
2022-08-17T10:18:31.867Z,30.27
2022-08-17T10:21:38.417Z,30.98
2022-08-17T10:25:23.403Z,31.40
2022-08-17T10:28:05.435Z,31.07
2022-08-17T10:30:41.620Z,30.77
2022-08-17T10:33:24.835Z,31.22
2022-08-17T10:36:14.941Z,31.42
2022-08-17T10:38:59.773Z,31.18
2022-08-17T10:41:41.524Z,31.08
2022-08-17T10:44:56.285Z,31.03
2022-08-17T10:47:27.009Z,31.27
2022-08-17T10:49:56.014Z,30.91
2022-08-17T10:52:24.064Z,30.82
2022-08-17T10:54:51.807Z,30.91
2022-08-17T10:57:33.855Z,30.66
2022-08-17T11:00:15.638Z,30.64
2022-08-17T11:02:51.165Z,30.79
2022-08-17T11:05:54.033Z,30.48
2022-08-17T11:08:50.701Z,29.72
2022-08-17T11:12:10.699Z,29.77
2022-08-17T11:14:53.671Z,29.93
2022-08-17T11:18:15.419Z,30.15
2022-08-17T11:21:39.156Z,30.60
2022-08-17T11:24:30.581Z,30.66
2022-08-17T11:27:36.023Z,30.71
2022-08-17T11:30:34.746Z,30.65
2022-08-17T11:33:38.243Z,30.89
2022-08-17T11:36:23.520Z,31.08
2022-08-17T11:39:33.416Z,31.12
2022-08-17T11:42:44.355Z,31.21
2022-08-17T11:45:46.425Z,31.47
2022-08-17T11:49:06.513Z,31.20
2022-08-17T11:52:13.858Z,31.15
2022-08-17T11:54:48.024Z,30.75
2022-08-17T11:57:26.998Z,30.78
2022-08-17T12:00:11.599Z,30.94
2022-08-17T12:02:48.753Z,30.81
2022-08-17T12:05:19.431Z,30.85
2022-08-17T12:07:55.970Z,30.85
2022-08-17T12:10:32.114Z,30.93
2022-08-17T12:13:11.497Z,30.81
2022-08-17T12:15:48.795Z,30.91
2022-08-17T12:18:29.217Z,31.07
2022-08-17T12:21:24.370Z,30.95
2022-08-17T12:24:26.014Z,30.61
2022-08-17T12:27:04.353Z,30.54
2022-08-17T12:29:35.403Z,30.62
2022-08-17T12:32:07.361Z,30.54
2022-08-17T12:34:42.309Z,30.52
2022-08-17T12:37:18.510Z,30.70
2022-08-17T12:39:58.645Z,30.75
2022-08-17T12:42:33.091Z,30.76
2022-08-17T12:45:00.113Z,30.64
2022-08-17T12:47:30.053Z,30.60
2022-08-17T12:50:28.667Z,30.47
2022-08-17T12:53:01.657Z,30.43
2022-08-17T12:55:36.743Z,30.60
2022-08-17T12:58:05.006Z,30.71
2022-08-17T13:00:38.210Z,30.72
2022-08-17T13:03:19.301Z,31.11
2022-08-17T13:05:52.112Z,31.29
2022-08-17T13:08:28.163Z,31.39
2022-08-17T13:10:58.112Z,31.30
2022-08-17T13:13:41.360Z,31.21
2022-08-17T13:16:17.687Z,30.91
2022-08-17T13:19:12.766Z,30.62
2022-08-17T13:21:48.102Z,30.33
2022-08-17T13:24:37.922Z,30.42
2022-08-17T13:27:10.106Z,30.55
2022-08-17T13:29:51.532Z,30.54
2022-08-17T13:32:43.985Z,30.50
2022-08-17T13:35:39.954Z,30.55
2022-08-17T13:38:12.609Z,30.60
2022-08-17T13:40:53.143Z,30.56
2022-08-17T13:43:42.783Z,30.99
2022-08-17T13:46:26.574Z,31.09
2022-08-17T13:49:09.759Z,30.81
2022-08-17T13:51:46.170Z,30.82
2022-08-17T13:54:35.314Z,30.87
2022-08-17T13:57:23.255Z,30.75
2022-08-17T14:00:17.481Z,30.68
2022-08-17T14:02:44.507Z,30.65
2022-08-17T14:05:11.331Z,30.67
2022-08-17T14:07:40.727Z,30.81
2022-08-17T14:10:18.083Z,31.05
2022-08-17T14:12:46.070Z,31.10
2022-08-17T14:15:17.836Z,30.75
2022-08-17T14:17:44.578Z,30.45
2022-08-17T14:20:13.423Z,30.52
2022-08-17T14:22:45.643Z,30.67
2022-08-17T14:25:18.640Z,30.81
2022-08-17T14:27:53.028Z,30.88
2022-08-17T14:30:25.120Z,30.95
2022-08-17T14:32:53.555Z,30.91
2022-08-17T14:35:24.029Z,31.10
2022-08-17T14:37:52.847Z,31.14
2022-08-17T14:40:24.928Z,31.17
2022-08-17T14:42:55.139Z,30.98
2022-08-17T14:45:30.389Z,30.85
2022-08-17T14:48:07.584Z,30.80
2022-08-17T14:50:42.297Z,30.77
2022-08-17T14:53:13.566Z,30.60
2022-08-17T14:55:40.799Z,30.65
2022-08-17T14:58:09.503Z,30.65
2022-08-17T15:00:37.856Z,30.74
2022-08-17T15:03:05.737Z,30.55
2022-08-17T15:05:37.153Z,30.47
2022-08-17T15:08:05.726Z,30.49
2022-08-17T15:10:34.096Z,30.57
2022-08-17T15:13:01.155Z,30.47
2022-08-17T15:15:29.588Z,30.37
2022-08-17T15:17:57.231Z,30.42
2022-08-17T15:20:29.057Z,30.98
2022-08-17T15:22:58.810Z,31.12
2022-08-17T15:25:29.295Z,31.10
2022-08-17T15:27:56.698Z,31.32
2022-08-17T15:30:26.026Z,31.63
2022-08-17T15:32:55.198Z,31.72
2022-08-17T15:35:29.002Z,31.80
2022-08-17T15:38:09.898Z,31.40
2022-08-17T15:40:50.399Z,31.36
2022-08-17T15:43:32.645Z,31.38
2022-08-17T15:46:14.676Z,31.70
2022-08-17T15:48:44.791Z,31.73
2022-08-17T15:51:20.534Z,31.28
2022-08-17T15:53:55.659Z,30.99
2022-08-17T15:56:25.238Z,31.03
2022-08-17T15:58:53.019Z,30.86
2022-08-17T16:02:14.243Z,30.85
2022-08-17T16:04:30.213Z,30.54
2022-08-17T16:06:59.329Z,30.39
2022-08-17T16:09:26.409Z,30.27
2022-08-17T16:11:55.346Z,30.26
2022-08-17T16:14:24.298Z,30.19
2022-08-17T16:16:51.320Z,30.22
2022-08-17T16:19:17.999Z,30.34
2022-08-17T16:21:44.727Z,30.41
2022-08-17T16:24:13.251Z,30.48
2022-08-17T16:26:42.772Z,30.40
2022-08-17T16:29:09.592Z,30.39
2022-08-17T16:31:37.842Z,30.35
2022-08-17T16:34:17.284Z,30.30
2022-08-17T16:36:55.199Z,30.02
2022-08-17T16:39:26.825Z,29.85
2022-08-17T16:41:53.768Z,29.76
2022-08-17T16:44:21.971Z,29.67
2022-08-17T16:46:50.347Z,29.48
2022-08-17T16:49:35.969Z,29.42
2022-08-17T16:52:10.442Z,29.48
2022-08-17T16:54:43.346Z,29.41
2022-08-17T16:57:13.111Z,29.39
2022-08-17T16:59:44.958Z,29.36
2022-08-17T17:02:16.047Z,29.21
2022-08-17T17:05:02.964Z,29.23
2022-08-17T17:08:12.870Z,29.25
2022-08-17T17:10:55.730Z,29.16
2022-08-17T17:13:43.851Z,29.24
2022-08-17T17:16:21.517Z,29.29
2022-08-17T17:19:09.031Z,29.35
2022-08-17T17:21:58.694Z,29.37
2022-08-17T17:24:39.663Z,29.26
2022-08-17T17:27:42.556Z,29.21
2022-08-17T17:30:29.929Z,29.08
2022-08-17T17:33:09.139Z,28.90
2022-08-17T17:35:53.584Z,28.76
2022-08-17T17:38:49.674Z,28.70
2022-08-17T17:41:28.976Z,28.53
2022-08-17T17:44:07.860Z,28.43
2022-08-17T17:46:43.299Z,28.30
2022-08-17T17:49:14.290Z,28.11
2022-08-17T17:52:09.235Z,28.03
2022-08-17T17:54:57.427Z,27.96
2022-08-17T17:57:49.392Z,27.80
2022-08-17T18:00:24.284Z,27.65
2022-08-17T18:03:20.627Z,27.55
2022-08-17T18:06:24.771Z,27.36
2022-08-17T18:09:11.349Z,27.28
2022-08-17T18:12:16.660Z,27.15
2022-08-17T18:15:03.507Z,27.01
2022-08-17T18:17:31.203Z,26.83
2022-08-17T18:19:58.020Z,26.78
2022-08-17T18:22:27.728Z,26.76
2022-08-17T18:24:57.235Z,26.67
2022-08-17T18:27:38.104Z,26.66
2022-08-17T18:30:29.871Z,26.59
2022-08-17T18:33:26.288Z,26.47
2022-08-17T18:35:58.828Z,26.37
2022-08-17T18:38:41.398Z,26.34
2022-08-17T18:41:30.265Z,26.26
2022-08-17T18:44:06.093Z,26.14
2022-08-17T18:46:37.766Z,26.00
2022-08-17T18:49:29.304Z,25.79
2022-08-17T18:52:32.494Z,25.82
2022-08-17T18:55:20.112Z,25.83
2022-08-17T18:57:52.319Z,25.73
2022-08-17T19:00:40.500Z,25.64
2022-08-17T19:03:16.284Z,25.62
2022-08-17T19:06:15.403Z,25.58
2022-08-17T19:08:42.449Z,25.54
2022-08-17T19:11:34.021Z,25.45
2022-08-17T19:14:09.248Z,25.30
2022-08-17T19:17:02.296Z,25.23
2022-08-17T19:20:12.907Z,25.17
2022-08-17T19:23:08.002Z,25.09
2022-08-17T19:25:45.248Z,25.02
2022-08-17T19:28:25.716Z,25.00
2022-08-17T19:31:04.089Z,24.93
2022-08-17T19:33:31.583Z,24.84
2022-08-17T19:36:31.123Z,24.72
2022-08-17T19:39:26.794Z,24.76
2022-08-17T19:42:50.647Z,24.74
2022-08-17T19:45:39.508Z,24.74
2022-08-17T19:48:56.408Z,24.66
2022-08-17T19:51:34.090Z,24.58
2022-08-17T19:54:20.595Z,24.55
2022-08-17T19:57:06.787Z,24.53
2022-08-17T20:00:01.911Z,24.51
2022-08-17T20:03:05.877Z,24.40
2022-08-17T20:06:10.969Z,24.37
2022-08-17T20:08:48.735Z,24.29
2022-08-17T20:11:27.290Z,24.22
2022-08-17T20:14:33.801Z,24.16
2022-08-17T20:17:03.065Z,24.13
2022-08-17T20:19:55.525Z,24.06
2022-08-17T20:22:52.035Z,24.01
2022-08-17T20:25:43.532Z,23.86
2022-08-17T20:28:25.823Z,23.81
2022-08-17T20:30:52.905Z,23.85
2022-08-17T20:33:35.219Z,23.82
2022-08-17T20:36:22.762Z,23.76
2022-08-17T20:38:58.961Z,23.76
2022-08-17T20:41:30.461Z,23.75
2022-08-17T20:43:57.106Z,23.68
2022-08-17T20:46:36.429Z,23.68
2022-08-17T20:52:01.023Z,23.63
2022-08-17T20:54:49.570Z,23.67
2022-08-17T20:57:31.846Z,23.71
2022-08-17T21:00:18.150Z,23.72
2022-08-17T21:02:52.047Z,23.69
2022-08-17T21:05:34.254Z,23.64
2022-08-17T21:08:16.883Z,23.64
2022-08-17T21:10:47.107Z,23.63
2022-08-17T21:13:15.493Z,23.61
2022-08-17T21:15:59.055Z,23.62
2022-08-17T21:18:51.740Z,23.55
2022-08-17T21:21:41.695Z,23.52
2022-08-17T21:24:31.576Z,23.46
2022-08-17T21:27:18.129Z,23.44
2022-08-17T21:30:24.588Z,23.46
2022-08-17T21:33:18.477Z,23.50
2022-08-17T21:36:00.508Z,23.44
2022-08-17T21:38:41.681Z,23.40
2022-08-17T21:41:27.246Z,23.37
2022-08-17T21:44:06.214Z,23.31
2022-08-17T21:46:39.645Z,23.24
2022-08-17T21:49:13.843Z,23.21
2022-08-17T21:51:51.232Z,23.18
2022-08-17T21:54:34.660Z,23.16
2022-08-17T21:57:07.981Z,23.17
2022-08-17T21:59:39.985Z,23.16
2022-08-17T22:02:18.839Z,23.13
2022-08-17T22:05:16.648Z,23.16
2022-08-17T22:07:48.563Z,23.16
2022-08-17T22:10:38.931Z,23.11
2022-08-17T22:13:17.616Z,23.07
2022-08-17T22:15:50.258Z,23.05
2022-08-17T22:18:28.875Z,22.98
2022-08-17T22:21:01.743Z,22.97
2022-08-17T22:23:55.332Z,22.90
2022-08-17T22:26:27.704Z,22.86
2022-08-17T22:28:58.942Z,22.86
2022-08-17T22:31:29.687Z,22.86
2022-08-17T22:34:02.272Z,22.83
2022-08-17T22:36:35.056Z,22.79
2022-08-17T22:39:10.467Z,22.60
2022-08-17T22:41:51.062Z,22.63
2022-08-17T22:44:30.228Z,22.68
2022-08-17T22:47:13.952Z,22.65
2022-08-17T22:50:00.166Z,22.62
2022-08-17T22:52:35.252Z,22.60
2022-08-17T22:55:38.708Z,22.66
2022-08-17T22:58:35.209Z,22.62
2022-08-17T23:01:25.936Z,22.60
2022-08-17T23:04:01.279Z,22.60
2022-08-17T23:06:29.744Z,22.55
2022-08-17T23:08:57.767Z,22.58
2022-08-17T23:11:36.923Z,22.60
2022-08-17T23:14:16.691Z,22.62
2022-08-17T23:16:43.557Z,22.64
2022-08-17T23:19:18.937Z,22.62
2022-08-17T23:21:46.493Z,22.58
2022-08-17T23:24:25.973Z,22.61
2022-08-17T23:26:57.184Z,22.57
2022-08-17T23:29:29.179Z,22.56
2022-08-17T23:31:59.904Z,22.51
2022-08-17T23:34:28.566Z,22.45
2022-08-17T23:36:56.042Z,22.43
2022-08-17T23:39:27.725Z,22.42
2022-08-17T23:41:58.526Z,22.46
2022-08-17T23:44:27.027Z,22.50
2022-08-17T23:46:54.646Z,22.53
2022-08-17T23:49:21.623Z,22.45
2022-08-17T23:51:49.456Z,22.44
2022-08-17T23:54:26.858Z,22.41
2022-08-17T23:56:53.910Z,22.41
2022-08-17T23:59:23.326Z,22.41
